sensor_id;sensor_type;location;lat;lon;timestamp;temperature;humidity
7000;DHT22;3540;53.242;10.408;2023-03-16T00:01:04;-1.80;99.90
7000;DHT22;3540;53.242;10.408;2023-03-16T00:03:30;-1.80;99.90
7000;DHT22;3540;53.242;10.408;2023-03-16T00:05:55;-1.80;99.90
7000;DHT22;3540;53.242;10.408;2023-03-16T00:08:21;-1.80;99.90
7000;DHT22;3540;53.242;10.408;2023-03-16T00:10:47;-1.90;99.90
7000;DHT22;3540;53.242;10.408;2023-03-16T00:13:16;-1.90;99.90
7000;DHT22;3540;53.242;10.408;2023-03-16T00:15:52;-1.90;99.90
7000;DHT22;3540;53.242;10.408;2023-03-16T00:18:19;-1.90;99.90
7000;DHT22;3540;53.242;10.408;2023-03-16T00:20:49;-2.00;99.90
7000;DHT22;3540;53.242;10.408;2023-03-16T00:23:15;-2.00;99.90
7000;DHT22;3540;53.242;10.408;2023-03-16T00:25:41;-2.00;99.90
7000;DHT22;3540;53.242;10.408;2023-03-16T00:28:06;-2.00;99.90
7000;DHT22;3540;53.242;10.408;2023-03-16T00:30:32;-2.10;99.90
7000;DHT22;3540;53.242;10.408;2023-03-16T00:32:58;-2.10;99.90
7000;DHT22;3540;53.242;10.408;2023-03-16T00:35:24;-2.00;99.90
7000;DHT22;3540;53.242;10.408;2023-03-16T00:37:50;-2.00;99.90
7000;DHT22;3540;53.242;10.408;2023-03-16T00:40:15;-2.00;99.90
7000;DHT22;3540;53.242;10.408;2023-03-16T00:42:41;-2.00;99.90
7000;DHT22;3540;53.242;10.408;2023-03-16T00:45:08;-2.00;99.90
7000;DHT22;3540;53.242;10.408;2023-03-16T00:47:34;-2.10;99.90
7000;DHT22;3540;53.242;10.408;2023-03-16T00:50:01;-2.10;99.90
7000;DHT22;3540;53.242;10.408;2023-03-16T00:52:27;-2.10;99.90
7000;DHT22;3540;53.242;10.408;2023-03-16T00:54:54;-2.20;99.90
7000;DHT22;3540;53.242;10.408;2023-03-16T00:57:21;-2.20;99.90
7000;DHT22;3540;53.242;10.408;2023-03-16T00:59:49;-2.20;99.90
7000;DHT22;3540;53.242;10.408;2023-03-16T01:02:16;-2.20;99.90
7000;DHT22;3540;53.242;10.408;2023-03-16T01:04:43;-2.30;99.90
7000;DHT22;3540;53.242;10.408;2023-03-16T01:07:11;-2.30;99.90
7000;DHT22;3540;53.242;10.408;2023-03-16T01:09:38;-2.30;99.90
7000;DHT22;3540;53.242;10.408;2023-03-16T01:12:15;-2.20;99.90
7000;DHT22;3540;53.242;10.408;2023-03-16T01:14:42;-2.30;99.90
7000;DHT22;3540;53.242;10.408;2023-03-16T01:17:10;-2.30;99.90
7000;DHT22;3540;53.242;10.408;2023-03-16T01:19:38;-2.30;99.90
7000;DHT22;3540;53.242;10.408;2023-03-16T01:22:06;-2.30;99.90
7000;DHT22;3540;53.242;10.408;2023-03-16T01:24:34;-2.30;99.90
7000;DHT22;3540;53.242;10.408;2023-03-16T01:27:00;-2.30;99.90
7000;DHT22;3540;53.242;10.408;2023-03-16T01:29:26;-2.30;99.90
7000;DHT22;3540;53.242;10.408;2023-03-16T01:31:51;-2.40;99.90
7000;DHT22;3540;53.242;10.408;2023-03-16T01:34:17;-2.40;99.90
7000;DHT22;3540;53.242;10.408;2023-03-16T01:36:45;-2.40;99.90
7000;DHT22;3540;53.242;10.408;2023-03-16T01:39:12;-2.40;99.90
7000;DHT22;3540;53.242;10.408;2023-03-16T01:41:39;-2.40;99.90
7000;DHT22;3540;53.242;10.408;2023-03-16T01:44:11;-2.40;99.90
7000;DHT22;3540;53.242;10.408;2023-03-16T01:46:37;-2.40;99.90
7000;DHT22;3540;53.242;10.408;2023-03-16T01:49:10;-2.50;99.90
7000;DHT22;3540;53.242;10.408;2023-03-16T01:54:34;-2.40;99.90
7000;DHT22;3540;53.242;10.408;2023-03-16T01:57:07;-2.40;99.90
7000;DHT22;3540;53.242;10.408;2023-03-16T01:59:37;-2.50;99.90
7000;DHT22;3540;53.242;10.408;2023-03-16T02:02:04;-2.40;99.90
7000;DHT22;3540;53.242;10.408;2023-03-16T02:07:27;-2.50;99.90
7000;DHT22;3540;53.242;10.408;2023-03-16T02:09:57;-2.50;99.90
7000;DHT22;3540;53.242;10.408;2023-03-16T02:12:24;-2.50;99.90
7000;DHT22;3540;53.242;10.408;2023-03-16T02:14:50;-2.50;99.90
7000;DHT22;3540;53.242;10.408;2023-03-16T02:17:19;-2.50;99.90
7000;DHT22;3540;53.242;10.408;2023-03-16T02:20:16;-2.50;99.90
7000;DHT22;3540;53.242;10.408;2023-03-16T02:22:50;-2.50;99.90
7000;DHT22;3540;53.242;10.408;2023-03-16T02:25:22;-2.50;99.90
7000;DHT22;3540;53.242;10.408;2023-03-16T02:30:32;-2.50;99.90
7000;DHT22;3540;53.242;10.408;2023-03-16T02:32:58;-2.50;99.90
7000;DHT22;3540;53.242;10.408;2023-03-16T02:35:24;-2.50;99.90
7000;DHT22;3540;53.242;10.408;2023-03-16T02:37:49;-2.50;99.90
7000;DHT22;3540;53.242;10.408;2023-03-16T02:40:23;-2.50;99.90
7000;DHT22;3540;53.242;10.408;2023-03-16T02:43:08;-2.60;99.90
7000;DHT22;3540;53.242;10.408;2023-03-16T02:45:38;-2.60;99.90
7000;DHT22;3540;53.242;10.408;2023-03-16T02:48:10;-2.60;99.90
7000;DHT22;3540;53.242;10.408;2023-03-16T02:50:46;-2.70;99.90
7000;DHT22;3540;53.242;10.408;2023-03-16T02:53:14;-2.70;99.90
7000;DHT22;3540;53.242;10.408;2023-03-16T02:55:40;-2.70;99.90
7000;DHT22;3540;53.242;10.408;2023-03-16T02:58:05;-2.70;99.90
7000;DHT22;3540;53.242;10.408;2023-03-16T03:00:31;-2.70;99.90
7000;DHT22;3540;53.242;10.408;2023-03-16T03:02:57;-2.60;99.90
7000;DHT22;3540;53.242;10.408;2023-03-16T03:05:23;-2.70;99.90
7000;DHT22;3540;53.242;10.408;2023-03-16T03:07:49;-2.70;99.90
7000;DHT22;3540;53.242;10.408;2023-03-16T03:10:15;-2.60;99.90
7000;DHT22;3540;53.242;10.408;2023-03-16T03:12:41;-2.60;99.90
7000;DHT22;3540;53.242;10.408;2023-03-16T03:15:07;-2.60;99.90
7000;DHT22;3540;53.242;10.408;2023-03-16T03:17:33;-2.60;99.90
7000;DHT22;3540;53.242;10.408;2023-03-16T03:19:59;-2.70;99.90
7000;DHT22;3540;53.242;10.408;2023-03-16T03:22:30;-2.70;99.90
7000;DHT22;3540;53.242;10.408;2023-03-16T03:24:56;-2.70;99.90
7000;DHT22;3540;53.242;10.408;2023-03-16T03:27:22;-2.70;99.90
7000;DHT22;3540;53.242;10.408;2023-03-16T03:29:48;-2.60;99.90
7000;DHT22;3540;53.242;10.408;2023-03-16T03:32:14;-2.60;99.90
7000;DHT22;3540;53.242;10.408;2023-03-16T03:34:40;-2.60;99.90
7000;DHT22;3540;53.242;10.408;2023-03-16T03:37:07;-2.60;99.90
7000;DHT22;3540;53.242;10.408;2023-03-16T03:39:32;-2.70;99.90
7000;DHT22;3540;53.242;10.408;2023-03-16T03:41:58;-2.70;99.90
7000;DHT22;3540;53.242;10.408;2023-03-16T03:44:24;-2.70;99.90
7000;DHT22;3540;53.242;10.408;2023-03-16T03:46:51;-2.70;99.90
7000;DHT22;3540;53.242;10.408;2023-03-16T03:49:17;-2.70;99.90
7000;DHT22;3540;53.242;10.408;2023-03-16T03:51:43;-2.70;99.90
7000;DHT22;3540;53.242;10.408;2023-03-16T03:54:09;-2.70;99.90
7000;DHT22;3540;53.242;10.408;2023-03-16T03:56:35;-2.70;99.90
7000;DHT22;3540;53.242;10.408;2023-03-16T03:59:01;-2.70;99.90
7000;DHT22;3540;53.242;10.408;2023-03-16T04:01:26;-2.70;99.90
7000;DHT22;3540;53.242;10.408;2023-03-16T04:03:52;-2.70;99.90
7000;DHT22;3540;53.242;10.408;2023-03-16T04:06:17;-2.60;99.90
7000;DHT22;3540;53.242;10.408;2023-03-16T04:08:43;-2.70;99.90
7000;DHT22;3540;53.242;10.408;2023-03-16T04:11:09;-2.70;99.90
7000;DHT22;3540;53.242;10.408;2023-03-16T04:13:36;-2.60;99.90
7000;DHT22;3540;53.242;10.408;2023-03-16T04:16:01;-2.60;99.90
7000;DHT22;3540;53.242;10.408;2023-03-16T04:18:27;-2.60;99.90
7000;DHT22;3540;53.242;10.408;2023-03-16T04:20:54;-2.60;99.90
7000;DHT22;3540;53.242;10.408;2023-03-16T04:23:20;-2.60;99.90
7000;DHT22;3540;53.242;10.408;2023-03-16T04:25:46;-2.60;99.90
7000;DHT22;3540;53.242;10.408;2023-03-16T04:28:12;-2.60;99.90
7000;DHT22;3540;53.242;10.408;2023-03-16T04:30:42;-2.60;99.90
7000;DHT22;3540;53.242;10.408;2023-03-16T04:33:07;-2.60;99.90
7000;DHT22;3540;53.242;10.408;2023-03-16T04:35:33;-2.50;99.90
7000;DHT22;3540;53.242;10.408;2023-03-16T04:37:58;-2.50;99.90
7000;DHT22;3540;53.242;10.408;2023-03-16T04:40:24;-2.50;99.90
7000;DHT22;3540;53.242;10.408;2023-03-16T04:42:50;-2.60;99.90
7000;DHT22;3540;53.242;10.408;2023-03-16T04:45:16;-2.60;99.90
7000;DHT22;3540;53.242;10.408;2023-03-16T04:47:42;-2.60;99.90
7000;DHT22;3540;53.242;10.408;2023-03-16T04:50:08;-2.50;99.90
7000;DHT22;3540;53.242;10.408;2023-03-16T04:52:35;-2.50;99.90
7000;DHT22;3540;53.242;10.408;2023-03-16T04:55:01;-2.50;99.90
7000;DHT22;3540;53.242;10.408;2023-03-16T04:57:26;-2.50;99.90
7000;DHT22;3540;53.242;10.408;2023-03-16T04:59:52;-2.40;99.90
7000;DHT22;3540;53.242;10.408;2023-03-16T05:02:18;-2.40;99.90
7000;DHT22;3540;53.242;10.408;2023-03-16T05:04:44;-2.40;99.90
7000;DHT22;3540;53.242;10.408;2023-03-16T05:07:10;-2.40;99.90
7000;DHT22;3540;53.242;10.408;2023-03-16T05:09:36;-2.40;99.90
7000;DHT22;3540;53.242;10.408;2023-03-16T05:12:01;-2.40;99.90
7000;DHT22;3540;53.242;10.408;2023-03-16T05:14:27;-2.40;99.90
7000;DHT22;3540;53.242;10.408;2023-03-16T05:16:53;-2.50;99.90
7000;DHT22;3540;53.242;10.408;2023-03-16T05:19:18;-2.40;99.90
7000;DHT22;3540;53.242;10.408;2023-03-16T05:21:44;-2.50;99.90
7000;DHT22;3540;53.242;10.408;2023-03-16T05:24:10;-2.50;99.90
7000;DHT22;3540;53.242;10.408;2023-03-16T05:26:36;-2.50;99.90
7000;DHT22;3540;53.242;10.408;2023-03-16T05:29:02;-2.50;99.90
7000;DHT22;3540;53.242;10.408;2023-03-16T05:31:28;-2.50;99.90
7000;DHT22;3540;53.242;10.408;2023-03-16T05:33:57;-2.50;99.90
7000;DHT22;3540;53.242;10.408;2023-03-16T05:36:22;-2.50;99.90
7000;DHT22;3540;53.242;10.408;2023-03-16T05:38:49;-2.50;99.90
7000;DHT22;3540;53.242;10.408;2023-03-16T05:41:15;-2.50;99.90
7000;DHT22;3540;53.242;10.408;2023-03-16T05:43:43;-2.40;99.90
7000;DHT22;3540;53.242;10.408;2023-03-16T05:46:08;-2.40;99.90
7000;DHT22;3540;53.242;10.408;2023-03-16T05:48:34;-2.40;99.90
7000;DHT22;3540;53.242;10.408;2023-03-16T05:51:00;-2.30;99.90
7000;DHT22;3540;53.242;10.408;2023-03-16T05:53:25;-2.30;99.90
7000;DHT22;3540;53.242;10.408;2023-03-16T05:55:53;-2.30;99.90
7000;DHT22;3540;53.242;10.408;2023-03-16T05:58:19;-2.20;99.90
7000;DHT22;3540;53.242;10.408;2023-03-16T06:00:45;-2.10;99.90
7000;DHT22;3540;53.242;10.408;2023-03-16T06:03:11;-2.00;99.90
7000;DHT22;3540;53.242;10.408;2023-03-16T06:05:37;-1.90;99.90
7000;DHT22;3540;53.242;10.408;2023-03-16T06:08:03;-1.80;99.90
7000;DHT22;3540;53.242;10.408;2023-03-16T06:10:28;-1.80;99.90
7000;DHT22;3540;53.242;10.408;2023-03-16T06:12:54;-1.70;99.90
7000;DHT22;3540;53.242;10.408;2023-03-16T06:15:20;-1.60;99.90
7000;DHT22;3540;53.242;10.408;2023-03-16T06:17:49;-1.60;99.90
7000;DHT22;3540;53.242;10.408;2023-03-16T06:20:15;-1.40;99.90
7000;DHT22;3540;53.242;10.408;2023-03-16T06:22:42;-1.40;99.90
7000;DHT22;3540;53.242;10.408;2023-03-16T06:25:10;-1.30;99.90
7000;DHT22;3540;53.242;10.408;2023-03-16T06:27:36;-1.20;99.90
7000;DHT22;3540;53.242;10.408;2023-03-16T06:30:03;-1.10;99.90
7000;DHT22;3540;53.242;10.408;2023-03-16T06:32:29;-1.00;99.90
7000;DHT22;3540;53.242;10.408;2023-03-16T06:34:54;-0.90;99.90
7000;DHT22;3540;53.242;10.408;2023-03-16T06:37:20;-0.70;99.90
7000;DHT22;3540;53.242;10.408;2023-03-16T06:39:46;-0.50;99.90
7000;DHT22;3540;53.242;10.408;2023-03-16T06:42:11;-0.40;99.90
7000;DHT22;3540;53.242;10.408;2023-03-16T06:44:37;-0.50;99.90
7000;DHT22;3540;53.242;10.408;2023-03-16T06:47:03;-0.40;99.90
7000;DHT22;3540;53.242;10.408;2023-03-16T06:49:29;-0.40;99.90
7000;DHT22;3540;53.242;10.408;2023-03-16T06:51:54;-0.40;99.90
7000;DHT22;3540;53.242;10.408;2023-03-16T06:54:23;-0.30;99.90
7000;DHT22;3540;53.242;10.408;2023-03-16T06:56:49;-0.20;99.90
7000;DHT22;3540;53.242;10.408;2023-03-16T06:59:15;-0.10;99.90
7000;DHT22;3540;53.242;10.408;2023-03-16T07:01:40;-0.10;99.90
7000;DHT22;3540;53.242;10.408;2023-03-16T07:04:06;0.00;99.90
7000;DHT22;3540;53.242;10.408;2023-03-16T07:06:32;-0.10;99.90
7000;DHT22;3540;53.242;10.408;2023-03-16T07:08:58;0.00;99.90
7000;DHT22;3540;53.242;10.408;2023-03-16T07:11:26;0.10;99.90
7000;DHT22;3540;53.242;10.408;2023-03-16T07:13:51;0.20;99.90
7000;DHT22;3540;53.242;10.408;2023-03-16T07:16:17;0.20;99.90
7000;DHT22;3540;53.242;10.408;2023-03-16T07:18:43;0.20;99.90
7000;DHT22;3540;53.242;10.408;2023-03-16T07:21:10;0.30;99.90
7000;DHT22;3540;53.242;10.408;2023-03-16T07:23:35;0.40;99.90
7000;DHT22;3540;53.242;10.408;2023-03-16T07:26:01;0.40;99.90
7000;DHT22;3540;53.242;10.408;2023-03-16T07:28:28;0.40;99.90
7000;DHT22;3540;53.242;10.408;2023-03-16T07:30:54;0.50;99.90
7000;DHT22;3540;53.242;10.408;2023-03-16T07:33:19;0.60;99.90
7000;DHT22;3540;53.242;10.408;2023-03-16T07:35:45;0.60;99.90
7000;DHT22;3540;53.242;10.408;2023-03-16T07:38:11;0.70;99.90
7000;DHT22;3540;53.242;10.408;2023-03-16T07:40:39;0.80;99.90
7000;DHT22;3540;53.242;10.408;2023-03-16T07:43:04;0.80;99.90
7000;DHT22;3540;53.242;10.408;2023-03-16T07:45:30;0.90;99.90
7000;DHT22;3540;53.242;10.408;2023-03-16T07:47:56;0.90;99.90
7000;DHT22;3540;53.242;10.408;2023-03-16T07:50:21;1.00;99.90
7000;DHT22;3540;53.242;10.408;2023-03-16T07:52:47;1.10;99.90
7000;DHT22;3540;53.242;10.408;2023-03-16T07:55:13;1.20;99.90
7000;DHT22;3540;53.242;10.408;2023-03-16T07:57:39;1.30;99.90
7000;DHT22;3540;53.242;10.408;2023-03-16T08:00:07;1.30;99.90
7000;DHT22;3540;53.242;10.408;2023-03-16T08:02:33;1.40;99.90
7000;DHT22;3540;53.242;10.408;2023-03-16T08:04:59;1.50;99.90
7000;DHT22;3540;53.242;10.408;2023-03-16T08:07:24;1.60;99.90
7000;DHT22;3540;53.242;10.408;2023-03-16T08:09:51;1.70;99.90
7000;DHT22;3540;53.242;10.408;2023-03-16T08:12:16;1.90;99.90
7000;DHT22;3540;53.242;10.408;2023-03-16T08:14:42;2.10;99.90
7000;DHT22;3540;53.242;10.408;2023-03-16T08:17:10;2.20;99.90
7000;DHT22;3540;53.242;10.408;2023-03-16T08:19:36;2.30;99.90
7000;DHT22;3540;53.242;10.408;2023-03-16T08:22:03;2.40;99.90
7000;DHT22;3540;53.242;10.408;2023-03-16T08:24:30;2.50;99.90
7000;DHT22;3540;53.242;10.408;2023-03-16T08:26:57;2.50;99.90
7000;DHT22;3540;53.242;10.408;2023-03-16T08:29:24;2.60;99.90
7000;DHT22;3540;53.242;10.408;2023-03-16T08:31:51;2.70;99.90
7000;DHT22;3540;53.242;10.408;2023-03-16T08:34:17;2.90;99.90
7000;DHT22;3540;53.242;10.408;2023-03-16T08:36:43;3.00;99.90
7000;DHT22;3540;53.242;10.408;2023-03-16T08:39:09;3.20;99.90
7000;DHT22;3540;53.242;10.408;2023-03-16T08:41:35;3.30;99.90
7000;DHT22;3540;53.242;10.408;2023-03-16T08:44:01;3.40;99.90
7000;DHT22;3540;53.242;10.408;2023-03-16T08:46:30;3.50;99.90
7000;DHT22;3540;53.242;10.408;2023-03-16T08:48:56;3.60;99.90
7000;DHT22;3540;53.242;10.408;2023-03-16T08:51:21;3.80;99.90
7000;DHT22;3540;53.242;10.408;2023-03-16T08:53:47;4.00;99.90
7000;DHT22;3540;53.242;10.408;2023-03-16T08:56:13;4.10;99.90
7000;DHT22;3540;53.242;10.408;2023-03-16T08:58:40;4.10;99.90
7000;DHT22;3540;53.242;10.408;2023-03-16T09:01:12;4.30;99.90
7000;DHT22;3540;53.242;10.408;2023-03-16T09:03:38;4.50;99.90
7000;DHT22;3540;53.242;10.408;2023-03-16T09:06:07;4.50;99.90
7000;DHT22;3540;53.242;10.408;2023-03-16T09:08:34;4.70;99.90
7000;DHT22;3540;53.242;10.408;2023-03-16T09:11:19;4.90;99.90
7000;DHT22;3540;53.242;10.408;2023-03-16T09:13:46;5.00;99.90
7000;DHT22;3540;53.242;10.408;2023-03-16T09:16:13;5.10;99.90
7000;DHT22;3540;53.242;10.408;2023-03-16T09:18:40;5.10;99.90
7000;DHT22;3540;53.242;10.408;2023-03-16T09:21:08;5.30;99.90
7000;DHT22;3540;53.242;10.408;2023-03-16T09:23:35;5.40;99.90
7000;DHT22;3540;53.242;10.408;2023-03-16T09:26:07;5.60;99.90
7000;DHT22;3540;53.242;10.408;2023-03-16T09:28:34;5.70;99.90
7000;DHT22;3540;53.242;10.408;2023-03-16T09:31:01;5.90;99.90
7000;DHT22;3540;53.242;10.408;2023-03-16T09:33:28;6.00;99.90
7000;DHT22;3540;53.242;10.408;2023-03-16T09:35:54;6.30;99.90
7000;DHT22;3540;53.242;10.408;2023-03-16T09:38:22;6.30;99.90
7000;DHT22;3540;53.242;10.408;2023-03-16T09:40:57;6.50;99.90
7000;DHT22;3540;53.242;10.408;2023-03-16T09:46:40;6.70;99.90
7000;DHT22;3540;53.242;10.408;2023-03-16T09:49:11;6.90;99.90
7000;DHT22;3540;53.242;10.408;2023-03-16T09:52:02;7.00;99.90
7000;DHT22;3540;53.242;10.408;2023-03-16T10:04:41;7.50;99.90
7000;DHT22;3540;53.242;10.408;2023-03-16T10:07:43;7.50;99.90
7000;DHT22;3540;53.242;10.408;2023-03-16T10:10:20;7.60;99.90
7000;DHT22;3540;53.242;10.408;2023-03-16T10:12:53;7.70;99.90
7000;DHT22;3540;53.242;10.408;2023-03-16T10:15:28;7.80;99.90
7000;DHT22;3540;53.242;10.408;2023-03-16T10:18:01;8.10;99.90
7000;DHT22;3540;53.242;10.408;2023-03-16T10:20:31;8.10;99.90
7000;DHT22;3540;53.242;10.408;2023-03-16T10:22:57;8.10;99.90
7000;DHT22;3540;53.242;10.408;2023-03-16T10:25:41;8.00;99.90
7000;DHT22;3540;53.242;10.408;2023-03-16T10:28:14;8.10;99.90
7000;DHT22;3540;53.242;10.408;2023-03-16T10:30:40;8.10;99.90
7000;DHT22;3540;53.242;10.408;2023-03-16T10:33:23;8.10;99.90
7000;DHT22;3540;53.242;10.408;2023-03-16T10:36:00;8.10;99.90
7000;DHT22;3540;53.242;10.408;2023-03-16T10:41:13;8.20;99.90
7000;DHT22;3540;53.242;10.408;2023-03-16T10:46:17;8.60;99.90
7000;DHT22;3540;53.242;10.408;2023-03-16T10:48:57;8.40;99.90
7000;DHT22;3540;53.242;10.408;2023-03-16T10:51:31;8.50;99.90
7000;DHT22;3540;53.242;10.408;2023-03-16T10:54:13;8.50;99.90
7000;DHT22;3540;53.242;10.408;2023-03-16T10:56:40;8.70;99.90
7000;DHT22;3540;53.242;10.408;2023-03-16T10:59:13;8.80;99.90
7000;DHT22;3540;53.242;10.408;2023-03-16T11:01:44;8.90;99.90
7000;DHT22;3540;53.242;10.408;2023-03-16T11:04:13;8.90;99.90
7000;DHT22;3540;53.242;10.408;2023-03-16T11:06:48;8.90;99.90
7000;DHT22;3540;53.242;10.408;2023-03-16T11:09:22;8.90;99.90
7000;DHT22;3540;53.242;10.408;2023-03-16T11:11:50;8.90;99.90
7000;DHT22;3540;53.242;10.408;2023-03-16T11:14:20;8.90;99.90
7000;DHT22;3540;53.242;10.408;2023-03-16T11:17:50;8.80;99.90
7000;DHT22;3540;53.242;10.408;2023-03-16T11:19:57;8.90;99.90
7000;DHT22;3540;53.242;10.408;2023-03-16T11:22:25;9.00;99.90
7000;DHT22;3540;53.242;10.408;2023-03-16T11:27:23;9.40;99.90
7000;DHT22;3540;53.242;10.408;2023-03-16T11:30:26;9.30;99.90
7000;DHT22;3540;53.242;10.408;2023-03-16T11:32:53;9.40;99.90
7000;DHT22;3540;53.242;10.408;2023-03-16T11:35:27;9.40;99.90
7000;DHT22;3540;53.242;10.408;2023-03-16T11:40:44;9.50;99.90
7000;DHT22;3540;53.242;10.408;2023-03-16T11:48:47;9.60;99.90
7000;DHT22;3540;53.242;10.408;2023-03-16T11:51:40;9.60;99.90
7000;DHT22;3540;53.242;10.408;2023-03-16T12:00:10;9.70;99.90
7000;DHT22;3540;53.242;10.408;2023-03-16T12:12:50;8.90;99.90
7000;DHT22;3540;53.242;10.408;2023-03-16T12:14:49;9.00;99.90
7000;DHT22;3540;53.242;10.408;2023-03-16T12:17:29;9.40;99.90
7000;DHT22;3540;53.242;10.408;2023-03-16T12:20:16;9.70;99.90
7000;DHT22;3540;53.242;10.408;2023-03-16T12:22:44;10.00;99.90
7000;DHT22;3540;53.242;10.408;2023-03-16T12:25:39;9.90;99.90
7000;DHT22;3540;53.242;10.408;2023-03-16T12:28:22;10.10;99.90
7000;DHT22;3540;53.242;10.408;2023-03-16T12:39:03;10.50;99.90
7000;DHT22;3540;53.242;10.408;2023-03-16T12:44:28;10.20;99.90
7000;DHT22;3540;53.242;10.408;2023-03-16T12:47:02;10.00;99.90
7000;DHT22;3540;53.242;10.408;2023-03-16T12:49:33;10.00;99.90
7000;DHT22;3540;53.242;10.408;2023-03-16T12:52:04;10.20;99.90
7000;DHT22;3540;53.242;10.408;2023-03-16T12:54:30;10.40;99.90
7000;DHT22;3540;53.242;10.408;2023-03-16T12:57:07;10.40;99.90
7000;DHT22;3540;53.242;10.408;2023-03-16T12:59:42;10.60;99.90
7000;DHT22;3540;53.242;10.408;2023-03-16T13:02:18;10.80;99.90
7000;DHT22;3540;53.242;10.408;2023-03-16T13:04:46;10.40;99.90
7000;DHT22;3540;53.242;10.408;2023-03-16T13:07:19;10.40;99.90
7000;DHT22;3540;53.242;10.408;2023-03-16T13:10:08;10.50;99.90
7000;DHT22;3540;53.242;10.408;2023-03-16T13:12:36;10.40;99.90
7000;DHT22;3540;53.242;10.408;2023-03-16T13:15:26;10.20;99.90
7000;DHT22;3540;53.242;10.408;2023-03-16T13:18:26;10.30;99.90
7000;DHT22;3540;53.242;10.408;2023-03-16T13:21:00;10.40;99.90
7000;DHT22;3540;53.242;10.408;2023-03-16T13:28:53;10.20;99.90
7000;DHT22;3540;53.242;10.408;2023-03-16T13:31:36;10.10;99.90
7000;DHT22;3540;53.242;10.408;2023-03-16T13:34:06;10.10;99.90
7000;DHT22;3540;53.242;10.408;2023-03-16T13:36:36;10.20;99.90
7000;DHT22;3540;53.242;10.408;2023-03-16T13:39:24;10.30;99.90
7000;DHT22;3540;53.242;10.408;2023-03-16T13:42:15;10.20;99.90
7000;DHT22;3540;53.242;10.408;2023-03-16T13:44:42;10.10;99.90
7000;DHT22;3540;53.242;10.408;2023-03-16T13:47:12;10.10;99.90
7000;DHT22;3540;53.242;10.408;2023-03-16T13:49:47;9.90;99.90
7000;DHT22;3540;53.242;10.408;2023-03-16T13:52:33;9.80;99.90
7000;DHT22;3540;53.242;10.408;2023-03-16T13:55:02;9.60;99.90
7000;DHT22;3540;53.242;10.408;2023-03-16T13:57:35;9.70;99.90
7000;DHT22;3540;53.242;10.408;2023-03-16T14:02:43;9.70;99.90
7000;DHT22;3540;53.242;10.408;2023-03-16T14:05:16;9.80;99.90
7000;DHT22;3540;53.242;10.408;2023-03-16T14:07:45;9.70;99.90
7000;DHT22;3540;53.242;10.408;2023-03-16T14:10:13;9.70;99.90
7000;DHT22;3540;53.242;10.408;2023-03-16T14:13:08;9.70;99.90
7000;DHT22;3540;53.242;10.408;2023-03-16T14:15:36;9.60;99.90
7000;DHT22;3540;53.242;10.408;2023-03-16T14:18:13;9.60;99.90
7000;DHT22;3540;53.242;10.408;2023-03-16T14:20:41;9.60;99.90
7000;DHT22;3540;53.242;10.408;2023-03-16T14:23:17;9.40;99.90
7000;DHT22;3540;53.242;10.408;2023-03-16T14:25:43;9.40;99.90
7000;DHT22;3540;53.242;10.408;2023-03-16T14:28:13;9.30;99.90
7000;DHT22;3540;53.242;10.408;2023-03-16T14:30:52;9.20;99.90
7000;DHT22;3540;53.242;10.408;2023-03-16T14:33:27;9.10;99.90
7000;DHT22;3540;53.242;10.408;2023-03-16T14:35:59;9.20;99.90
7000;DHT22;3540;53.242;10.408;2023-03-16T14:38:30;9.10;99.90
7000;DHT22;3540;53.242;10.408;2023-03-16T14:43:32;9.10;99.90
7000;DHT22;3540;53.242;10.408;2023-03-16T14:45:59;9.00;99.90
7000;DHT22;3540;53.242;10.408;2023-03-16T14:48:25;9.10;99.90
7000;DHT22;3540;53.242;10.408;2023-03-16T14:50:55;9.20;99.90
7000;DHT22;3540;53.242;10.408;2023-03-16T14:53:22;9.30;99.90
7000;DHT22;3540;53.242;10.408;2023-03-16T14:55:49;9.50;99.90
7000;DHT22;3540;53.242;10.408;2023-03-16T14:58:15;9.60;99.90
7000;DHT22;3540;53.242;10.408;2023-03-16T15:00:41;9.60;99.90
7000;DHT22;3540;53.242;10.408;2023-03-16T15:03:11;9.70;99.90
7000;DHT22;3540;53.242;10.408;2023-03-16T15:05:40;9.90;99.90
7000;DHT22;3540;53.242;10.408;2023-03-16T15:08:13;9.70;99.90
7000;DHT22;3540;53.242;10.408;2023-03-16T15:10:41;9.70;99.90
7000;DHT22;3540;53.242;10.408;2023-03-16T15:13:14;9.70;99.90
7000;DHT22;3540;53.242;10.408;2023-03-16T15:15:49;9.50;99.90
7000;DHT22;3540;53.242;10.408;2023-03-16T15:18:14;9.50;99.90
7000;DHT22;3540;53.242;10.408;2023-03-16T15:20:42;9.50;99.90
7000;DHT22;3540;53.242;10.408;2023-03-16T15:23:14;9.40;99.90
7000;DHT22;3540;53.242;10.408;2023-03-16T15:25:43;9.30;99.90
7000;DHT22;3540;53.242;10.408;2023-03-16T15:28:14;9.30;99.90
7000;DHT22;3540;53.242;10.408;2023-03-16T15:30:43;9.20;99.90
7000;DHT22;3540;53.242;10.408;2023-03-16T15:33:10;9.20;99.90
7000;DHT22;3540;53.242;10.408;2023-03-16T15:35:37;9.00;99.90
7000;DHT22;3540;53.242;10.408;2023-03-16T15:38:27;9.00;99.90
7000;DHT22;3540;53.242;10.408;2023-03-16T15:40:51;9.00;99.90
7000;DHT22;3540;53.242;10.408;2023-03-16T15:43:25;8.90;99.90
7000;DHT22;3540;53.242;10.408;2023-03-16T15:45:52;8.80;99.90
7000;DHT22;3540;53.242;10.408;2023-03-16T15:48:18;8.70;99.90
7000;DHT22;3540;53.242;10.408;2023-03-16T15:50:54;8.70;99.90
7000;DHT22;3540;53.242;10.408;2023-03-16T15:53:31;8.60;99.90
7000;DHT22;3540;53.242;10.408;2023-03-16T15:56:06;8.70;99.90
7000;DHT22;3540;53.242;10.408;2023-03-16T15:58:33;8.60;99.90
7000;DHT22;3540;53.242;10.408;2023-03-16T16:01:02;8.60;99.90
7000;DHT22;3540;53.242;10.408;2023-03-16T16:03:28;8.60;99.90
7000;DHT22;3540;53.242;10.408;2023-03-16T16:05:54;8.50;99.90
7000;DHT22;3540;53.242;10.408;2023-03-16T16:08:21;8.50;99.90
7000;DHT22;3540;53.242;10.408;2023-03-16T16:10:48;8.50;99.90
7000;DHT22;3540;53.242;10.408;2023-03-16T16:13:26;8.40;99.90
7000;DHT22;3540;53.242;10.408;2023-03-16T16:15:53;8.30;99.90
7000;DHT22;3540;53.242;10.408;2023-03-16T16:18:32;8.40;99.90
7000;DHT22;3540;53.242;10.408;2023-03-16T16:21:02;8.30;99.90
7000;DHT22;3540;53.242;10.408;2023-03-16T16:23:28;8.30;99.90
7000;DHT22;3540;53.242;10.408;2023-03-16T16:25:58;8.20;99.90
7000;DHT22;3540;53.242;10.408;2023-03-16T16:28:28;8.20;99.90
7000;DHT22;3540;53.242;10.408;2023-03-16T16:30:55;8.20;99.90
7000;DHT22;3540;53.242;10.408;2023-03-16T16:35:56;8.10;99.90
7000;DHT22;3540;53.242;10.408;2023-03-16T16:38:22;8.10;99.90
7000;DHT22;3540;53.242;10.408;2023-03-16T16:40:49;8.10;99.90
7000;DHT22;3540;53.242;10.408;2023-03-16T16:45:50;8.00;99.90
7000;DHT22;3540;53.242;10.408;2023-03-16T16:48:49;8.00;99.90
7000;DHT22;3540;53.242;10.408;2023-03-16T16:51:26;8.00;99.90
7000;DHT22;3540;53.242;10.408;2023-03-16T16:53:54;7.90;99.90
7000;DHT22;3540;53.242;10.408;2023-03-16T16:56:28;7.90;99.90
7000;DHT22;3540;53.242;10.408;2023-03-16T16:58:56;7.90;99.90
7000;DHT22;3540;53.242;10.408;2023-03-16T17:01:30;7.80;99.90
7000;DHT22;3540;53.242;10.408;2023-03-16T17:04:00;7.90;99.90
7000;DHT22;3540;53.242;10.408;2023-03-16T17:06:26;7.80;99.90
7000;DHT22;3540;53.242;10.408;2023-03-16T17:08:52;7.80;99.90
7000;DHT22;3540;53.242;10.408;2023-03-16T17:11:26;7.80;99.90
7000;DHT22;3540;53.242;10.408;2023-03-16T17:13:55;7.70;99.90
7000;DHT22;3540;53.242;10.408;2023-03-16T17:16:22;7.70;99.90
7000;DHT22;3540;53.242;10.408;2023-03-16T17:18:52;7.70;99.90
7000;DHT22;3540;53.242;10.408;2023-03-16T17:21:21;7.60;99.90
7000;DHT22;3540;53.242;10.408;2023-03-16T17:23:48;7.60;99.90
7000;DHT22;3540;53.242;10.408;2023-03-16T17:26:23;7.60;99.90
7000;DHT22;3540;53.242;10.408;2023-03-16T17:29:02;7.60;99.90